Latest Weather Observations for Hopetoun Airport

IDV60801

Issued at 11:32 pm EST Wednesday 24 May 2017 (issued every 30 minutes, with the page automatically refreshed every 10 minutes)

About weather observations | Map of weather stations | Latest weather observations for VIC | Other Formats
Station Details ID: 077010 Name: HOPETOUN AIRPORT Lat: -35.72 Lon: 142.36 Height: 77.3 m
Data from the previous 72 hours. | See also: Recent months at Hopetoun Airport
Date/Time
EST
Temp
°C
App
Temp
°C
Dew
Point
°C
Rel
Hum
%
Delta-T
°C
Wind Press
QNH
hPa
Press
MSL
hPa
Rain since
9am
mm
Dir  Spd
km/h
Gust
km/h
Spd
kts
Gust
kts
24/11:30pm 10.3 8.9 8.9 91 0.7 W 6 7 3 4 1021.8 1021.8 0.0
24/11:00pm 11.3 9.4 9.2 87 1.0 W 9 9 5 5 1021.8 1021.8 0.0
24/10:30pm 13.2 11.0 10.7 85 1.3 WSW 13 15 7 8 1021.9 1021.9 0.0
24/10:00pm 13.8 11.9 10.4 80 1.8 W 11 17 6 9 1021.9 1021.9 0.0
24/09:30pm 13.5 12.4 10.7 83 1.5 WSW 7 9 4 5 1021.8 1021.8 0.0
24/09:00pm 13.3 11.7 10.1 81 1.7 W 9 9 5 5 1021.7 1021.7 0.0
24/08:30pm 14.3 12.2 9.9 75 2.3 WSW 11 11 6 6 1021.6 1021.6 0.0
24/08:00pm 14.3 12.6 9.9 75 2.3 WSW 9 13 5 7 1021.5 1021.5 0.0
24/07:30pm 14.0 12.6 10.8 81 1.7 W 9 11 5 6 1021.5 1021.5 0.0
24/07:00pm 13.8 12.9 10.6 81 1.7 W 6 7 3 4 1021.2 1021.2 0.0
24/06:30pm 14.1 13.0 10.7 80 1.8 WSW 7 9 4 5 1021.0 1021.0 0.0
24/06:00pm 13.9 11.8 9.7 76 2.2 WSW 11 15 6 8 1020.8 1020.8 0.0
24/05:30pm 15.2 12.4 10.0 71 2.7 WSW 15 24 8 13 1020.6 1020.6 0.0
24/05:00pm 15.5 11.5 10.5 72 2.6 WSW 22 32 12 17 1020.4 1020.4 0.0
24/04:30pm 16.1 13.6 9.8 66 3.3 SW 13 19 7 10 1020.1 1020.1 0.0
24/04:00pm 16.6 12.8 9.1 61 3.9 WSW 19 26 10 14 1019.7 1019.7 0.0
24/03:30pm 17.1 13.6 8.8 58 4.3 SW 17 26 9 14 1019.4 1019.4 0.0
24/03:00pm 17.5 13.5 8.9 57 4.5 SW 20 26 11 14 1019.2 1019.2 0.0
24/02:30pm 16.7 12.8 9.4 62 3.8 SW 20 24 11 13 1019.1 1019.1 0.0
24/02:00pm 16.7 11.5 8.7 59 4.1 WSW 26 33 14 18 1019.0 1019.0 0.0
24/01:30pm 17.0 11.4 8.9 59 4.2 WSW 28 35 15 19 1019.1 1019.1 0.0
24/01:00pm 16.2 11.4 8.9 62 3.8 WSW 24 32 13 17 1019.2 1019.2 0.0
24/12:30pm 15.6 11.4 9.7 68 3.1 SW 22 32 12 17 1019.5 1019.5 0.0
24/12:00pm 15.0 9.9 9.1 68 3.0 SW 26 37 14 20 1019.7 1019.7 0.0
24/11:30am 15.1 10.6 10.1 72 2.6 WSW 24 32 13 17 1019.9 1019.9 0.0
24/11:00am 14.9 11.5 11.1 78 2.0 WSW 20 26 11 14 1019.8 1019.8 0.0
24/10:30am 14.3 11.0 11.5 83 1.5 WSW 20 26 11 14 1019.8 1019.8 0.0
24/10:00am 13.3 10.0 11.7 90 0.9 W 20 26 11 14 1019.6 1019.6 0.0
24/09:30am 13.3 10.3 12.0 92 0.7 W 19 24 10 13 1019.3 1019.3 0.0
24/09:00am 12.1 8.9 11.3 95 0.4 W 19 24 10 13 1018.7 1018.7 0.0
24/08:30am 11.5 8.7 11.2 98 0.2 WNW 17 20 9 11 1018.4 1018.4 0.0
24/08:00am 10.9 7.5 10.6 98 0.2 WNW 19 28 10 15 1018.1 1018.1 0.0
24/07:30am 10.5 7.7 10.0 97 0.3 WNW 15 19 8 10 1017.9 1017.9 0.0
24/07:00am 11.2 7.8 10.6 96 0.3 WNW 19 22 10 12 1017.4 1017.4 0.0
24/06:30am 11.5 7.2 10.9 96 0.3 W 24 32 13 17 1017.1 1017.1 0.0
24/06:00am 11.1 7.6 10.8 98 0.2 WNW 20 24 11 13 1016.7 1016.7 0.0
24/05:30am 9.6 6.6 9.3 98 0.1 WNW 15 17 8 9 1016.4 1016.4 0.0
24/05:00am 8.5 5.6 8.2 98 0.1 NW 13 15 7 8 1016.0 1016.1 0.0
24/04:30am 8.2 5.6 7.8 97 0.2 WNW 11 13 6 7 1015.9 1016.0 0.0
24/04:00am 7.9 5.2 7.3 96 0.3 NW 11 13 6 7 1015.8 1015.9 0.0
24/03:30am 8.5 5.9 7.7 95 0.4 NW 11 13 6 7 1015.8 1015.9 0.0
24/03:00am 9.2 6.7 8.0 92 0.6 NW 11 13 6 7 1015.7 1015.8 0.0
24/02:30am 9.8 7.0 8.7 93 0.5 WNW 13 15 7 8 1015.7 1015.8 0.0
24/02:00am 9.1 6.7 8.5 96 0.3 NW 11 15 6 8 1015.8 1015.9 0.0
24/01:30am 8.3 5.9 7.2 93 0.5 NW 9 11 5 6 1015.7 1015.8 0.0
24/01:00am 8.7 6.0 7.5 92 0.6 NW 11 13 6 7 1015.9 1016.0 0.0
24/12:30am 9.0 6.3 7.5 90 0.7 NW 11 13 6 7 1016.0 1016.1 0.0
24/12:00am 9.8 6.8 7.7 87 1.0 NW 13 15 7 8 1016.0 1016.1 0.0
 
Date/Time
EST
Temp
°C
App
Temp
°C
Dew
Point
°C
Rel
Hum
%
Delta-T
°C
Wind Press
QNH
hPa
Press
MSL
hPa
Rain since
9am
mm
Dir  Spd
km/h
Gust
km/h
Spd
kts
Gust
kts
23/11:30pm 10.7 7.8 8.1 84 1.3 WNW 13 17 7 9 1016.1 1016.2 0.0
23/11:00pm 11.2 8.3 8.2 82 1.5 WNW 13 17 7 9 1016.1 1016.2 0.0
23/10:30pm 11.7 8.9 8.7 82 1.5 WNW 13 17 7 9 1016.4 1016.4 0.0
23/10:00pm 9.7 7.1 7.8 88 0.9 NNW 11 13 6 7 1016.3 1016.3 0.0
23/09:30pm 9.0 6.3 7.5 90 0.7 NW 11 13 6 7 1016.3 1016.3 0.0
23/09:00pm 10.5 8.0 8.4 87 1.0 WNW 11 13 6 7 1016.3 1016.3 0.0
23/08:30pm 12.1 10.0 9.7 85 1.2 WNW 11 13 6 7 1016.0 1016.1 0.0
23/08:00pm 12.6 10.2 10.1 85 1.3 W 13 17 7 9 1015.7 1015.8 0.0
23/07:30pm 12.4 10.1 10.6 89 0.9 NW 13 15 7 8 1015.3 1015.4 0.0
23/07:00pm 12.1 10.5 10.3 89 0.9 NW 9 9 5 5 1015.0 1015.1 0.0
23/06:30pm 12.7 11.1 10.2 85 1.3 NW 9 9 5 5 1014.7 1014.8 0.0
23/06:00pm 13.6 12.4 10.4 81 1.7 NNW 7 9 4 5 1014.4 1014.5 0.0
23/05:30pm 14.1 12.6 10.5 79 1.9 NW 9 11 5 6 1014.5 1014.6 0.0
23/05:00pm 17.0 14.9 11.1 68 3.2 NNW 13 17 7 9 1014.4 1014.5 0.0
23/04:30pm 18.3 15.4 10.9 62 4.0 NW 17 22 9 12 1014.4 1014.5 0.0
23/04:00pm 19.0 16.3 11.6 62 4.1 NW 17 24 9 13 1014.4 1014.5 0.0
23/03:30pm 18.6 16.9 12.6 68 3.4 NW 13 17 7 9 1014.5 1014.6 0.0
23/03:00pm 19.2 17.8 12.2 64 3.9 NW 11 17 6 9 1014.5 1014.6 0.0
23/02:30pm 19.0 17.2 12.0 64 3.9 WNW 13 17 7 9 1014.7 1014.8 0.0
23/02:00pm 18.9 18.0 12.6 67 3.5 WNW 9 19 5 10 1015.1 1015.2 0.0
23/01:30pm 17.7 15.9 12.2 70 3.0 WNW 13 20 7 11 1015.4 1015.5 0.0
23/01:00pm 18.2 17.3 12.6 70 3.1 NW 9 17 5 9 1015.8 1015.9 0.0
23/12:30pm 17.9 16.8 12.1 69 3.2 WNW 9 15 5 8 1016.4 1016.4 0.0
23/12:00pm 17.7 15.9 12.2 70 3.0 NW 13 19 7 10 1017.0 1017.0 0.0
23/11:30am 17.1 15.6 12.0 72 2.8 NNW 11 17 6 9 1017.0 1017.0 0.0
23/11:00am 17.3 15.8 12.0 71 2.9 N 11 15 6 8 1017.2 1017.2 0.0
23/10:30am 16.7 16.0 12.0 74 2.6 N 7 11 4 6 1017.7 1017.7 0.0
23/10:00am 15.7 15.2 12.6 82 1.7 N 7 11 4 6 1018.0 1018.0 0.0
23/09:30am 14.5 14.0 12.2 86 1.3 N 6 9 3 5 1018.2 1018.2 0.0
23/09:00am 13.6 12.9 12.0 90 0.9 NNE 7 9 4 5 1018.1 1018.1 2.2
23/08:30am 12.5 10.9 11.6 94 0.5 NNE 11 15 6 8 1018.2 1018.2 2.2
23/08:00am 11.6 9.5 11.3 98 0.2 NE 13 17 7 9 1017.6 1017.6 2.2
23/07:30am 10.3 9.0 9.8 97 0.3 NNE 7 9 4 5 1017.5 1017.5 2.2
23/07:00am 11.1 9.6 10.6 97 0.3 NE 9 13 5 7 1017.5 1017.5 2.2
23/06:30am 11.6 9.0 10.8 95 0.4 NE 15 19 8 10 1017.1 1017.1 2.2
23/06:00am 12.4 9.3 11.5 94 0.5 NE 19 28 10 15 1017.1 1017.1 2.0
23/05:30am 12.4 10.0 11.3 93 0.6 NE 15 19 8 10 1017.4 1017.4 1.2
23/05:00am 12.7 12.2 10.9 89 0.9 SE 4 6 2 3 1016.9 1016.9 0.4
23/04:30am 12.6 11.5 10.7 88 1.0 SE 7 11 4 6 1016.8 1016.8 0.4
23/04:00am 12.4 11.5 10.8 90 0.8 SSE 6 7 3 4 1017.1 1017.1 0.4
23/03:30am 12.3 11.8 10.7 90 0.8 SSE 4 6 2 3 1017.9 1017.9 0.4
23/03:00am 12.4 10.8 10.3 87 1.1 NW 9 11 5 6 1018.5 1018.5 0.4
23/02:30am 12.5 11.4 10.0 85 1.3 NNW 6 11 3 6 1017.9 1017.9 0.0
23/02:00am 13.0 12.2 9.6 80 1.7 ESE 4 6 2 3 1016.6 1016.6 0.0
23/01:30am 12.9 10.7 9.5 80 1.7 ENE 11 13 6 7 1016.7 1016.7 0.0
23/01:00am 12.7 11.8 9.3 80 1.7 N 4 6 2 3 1017.3 1017.3 0.0
23/12:30am 13.4 10.8 9.3 76 2.1 W 13 22 7 12 1017.5 1017.5 0.0
23/12:00am 14.3 11.9 8.7 69 2.8 NNE 11 13 6 7 1017.1 1017.1 0.0
 
Date/Time
EST
Temp
°C
App
Temp
°C
Dew
Point
°C
Rel
Hum
%
Delta-T
°C
Wind Press
QNH
hPa
Press
MSL
hPa
Rain since
9am
mm
Dir  Spd
km/h
Gust
km/h
Spd
kts
Gust
kts
22/11:30pm 14.8 12.0 8.7 67 3.1 NNE 13 19 7 10 1017.1 1017.1 0.0
22/11:00pm 14.6 11.9 9.0 69 2.9 NNE 13 17 7 9 1017.3 1017.3 0.0
22/10:30pm 14.8 12.1 9.0 68 3.0 NNE 13 17 7 9 1017.3 1017.3 0.0
22/10:00pm 14.9 12.2 8.8 67 3.1 NNE 13 17 7 9 1017.2 1017.2 0.0
22/09:30pm 15.0 11.5 8.9 67 3.1 NNE 17 22 9 12 1016.9 1016.9 0.0
22/09:00pm 15.3 11.5 9.0 66 3.2 NNE 19 24 10 13 1016.8 1016.8 0.0
22/08:30pm 15.2 11.2 9.1 67 3.1 NE 20 26 11 14 1016.5 1016.5 0.0
22/08:00pm 14.7 11.4 9.5 71 2.7 NE 17 20 9 11 1016.5 1016.5 0.0
22/07:30pm 13.6 11.3 8.9 73 2.4 NNE 11 15 6 8 1016.8 1016.8 0.0
22/07:00pm 13.9 12.5 8.7 71 2.6 NE 6 9 3 5 1016.5 1016.5 0.0
22/06:30pm 14.8 12.0 8.7 67 3.1 NE 13 15 7 8 1016.0 1016.1 0.0
22/06:00pm 16.1 12.9 8.6 61 3.8 NNE 15 17 8 9 1016.1 1016.2 0.0
22/05:30pm 17.6 14.8 8.5 55 4.7 NNE 13 17 7 9 1016.1 1016.2 0.0
22/05:00pm 19.4 15.4 8.4 49 5.7 NNE 19 22 10 12 1016.1 1016.2 0.0
22/04:30pm 20.6 16.8 8.9 47 6.2 NNE 19 24 10 13 1016.1 1016.2 0.0
22/04:00pm 19.9 15.9 8.9 49 5.8 NNE 20 33 11 18 1016.0 1016.1 0.0
22/03:30pm 21.3 16.0 8.6 44 6.7 N 26 33 14 18 1016.1 1016.2 0.0
22/03:00pm 21.4 15.7 8.3 43 6.9 N 28 39 15 21 1016.7 1016.7 0.0
22/02:30pm 21.5 15.4 8.4 43 6.9 N 30 39 16 21 1016.9 1016.9 0.0
22/02:00pm 21.5 15.1 8.7 44 6.8 N 32 41 17 22 1017.0 1017.0 0.0
22/01:30pm 21.0 15.8 8.9 46 6.4 N 26 35 14 19 1017.3 1017.3 0.0
22/01:00pm 21.1 14.7 8.7 45 6.5 N 32 43 17 23 1017.8 1017.8 0.0
22/12:46pm 20.9 15.3 8.9 46 6.4 N 28 46 15 25 1017.9 1017.9 0.0
22/12:30pm 20.8 15.8 9.7 49 6.0 N 26 39 14 21 1018.5 1018.5 0.0
22/12:00pm 20.2 15.2 9.7 51 5.6 N 26 35 14 19 1018.8 1018.8 0.0
22/11:30am 19.2 13.7 9.1 52 5.3 N 28 41 15 22 1019.4 1019.4 0.0
22/11:00am 18.4 14.7 10.0 58 4.5 NNE 20 28 11 15 1020.0 1020.0 0.0
22/10:30am 17.1 13.2 9.5 61 4.0 N 20 28 11 15 1020.1 1020.1 0.0
22/10:00am 15.3 11.1 9.7 69 2.9 NNE 22 30 12 16 1020.3 1020.3 0.0
22/09:30am 14.4 10.7 9.6 73 2.5 NNE 19 24 10 13 1020.6 1020.6 0.0
22/09:00am 12.8 9.4 9.3 79 1.8 NNE 17 22 9 12 1020.9 1020.9 0.2
22/08:30am 11.6 8.4 8.6 82 1.5 NNE 15 20 8 11 1020.9 1020.9 0.2
22/08:00am 10.3 7.4 8.1 86 1.1 NNE 13 17 7 9 1020.9 1020.9 0.2
22/07:30am 9.5 6.1 7.8 89 0.8 NNE 15 19 8 10 1020.7 1020.7 0.2
22/07:00am 8.6 5.6 7.7 94 0.4 NE 13 17 7 9 1020.5 1020.5 0.2
22/06:30am 8.4 5.4 7.5 94 0.4 NE 13 17 7 9 1020.4 1020.4 0.0
22/06:00am 8.1 5.0 7.2 94 0.4 NE 13 15 7 8 1020.3 1020.3 0.0
22/05:30am 8.0 5.6 7.1 94 0.4 NE 9 11 5 6 1020.2 1020.2 0.0
22/05:00am 8.3 5.6 7.4 94 0.4 NE 11 13 6 7 1020.0 1020.0 0.0
22/04:30am 7.9 5.5 6.8 93 0.5 NE 9 11 5 6 1019.9 1019.9 0.0
22/04:00am 8.5 6.2 7.3 92 0.6 NNE 9 11 5 6 1019.7 1019.7 0.0
22/03:30am 9.2 6.2 7.8 91 0.7 NE 13 15 7 8 1019.6 1019.6 0.0
22/03:00am 9.6 6.4 8.4 92 0.6 NE 15 17 8 9 1019.7 1019.7 0.0
22/02:30am 9.3 6.3 7.9 91 0.7 NE 13 13 7 7 1019.7 1019.7 0.0
22/02:00am 9.6 6.7 8.2 91 0.7 NE 13 15 7 8 1019.7 1019.7 0.0
22/01:30am 9.8 7.0 8.6 92 0.6 NE 13 15 7 8 1019.9 1019.9 0.0
22/01:00am 9.1 6.4 7.5 90 0.8 NE 11 13 6 7 1020.2 1020.2 0.0
22/12:30am 9.4 7.2 7.7 89 0.8 NE 9 11 5 6 1020.3 1020.3 0.0
22/12:00am 9.7 7.2 8.0 89 0.8 NE 11 13 6 7 1020.4 1020.4 0.0

Other Formats:

Comma delimited format used in spreadsheet applications
http://www.bom.gov.au/fwo/IDV60801/IDV60801.94838.axf

JavaScript Object Notation format (JSON) in row-major order
http://www.bom.gov.au/fwo/IDV60801/IDV60801.94838.json